Time;durP1;ratioP1;P1;durP2;ratioP2;P2;SDS_P1;SDS_P2;PMS_P1;PMS_P2;Temp;Humidity;BMP_temperature;BMP_pressure;BME280_temperature;BME280_humidity;BME280_pressure;Samples;Min_cycle;Max_cycle;Signal;HPM_P1;HPM_P2
2022/02/02 00:02:22;;;;;;;37.65;7.20;;;8.60;99.90;;;;;;4144020;28;20041;-64
2022/02/02 00:03:58;;;;;;;46.75;8.73;;;8.50;99.90;;;;;;4139118;28;20118;-63
2022/02/02 00:06:10;;;;;;;48.17;8.32;;;8.50;99.90;;;;;;4116523;28;20057;-64
2022/02/02 00:08:17;;;;;;;42.60;7.57;;;8.50;99.90;;;;;;4126518;28;20398;-63
2022/02/02 00:12:45;;;;;;;38.45;6.28;;;8.40;99.90;;;;;;4137920;28;20034;-63
2022/02/02 00:15:16;;;;;;;35.58;7.32;;;8.40;99.90;;;;;;4140147;28;20470;-63
2022/02/02 00:17:30;;;;;;;34.28;7.35;;;8.50;99.90;;;;;;4141145;28;20042;-64
2022/02/02 00:23:42;;;;;;;31.98;6.15;;;8.40;99.90;;;;;;4144269;28;20121;-63
2022/02/02 00:25:51;;;;;;;41.72;6.93;;;8.40;99.90;;;;;;4138716;28;20061;-64
2022/02/02 00:27:57;;;;;;;42.72;6.80;;;8.40;99.90;;;;;;4140034;28;20060;-63
2022/02/02 00:30:01;;;;;;;28.48;6.38;;;8.30;99.90;;;;;;4142533;28;20037;-64
2022/02/02 00:32:18;;;;;;;47.88;7.32;;;8.30;99.90;;;;;;4141534;28;20058;-64
2022/02/02 00:34:23;;;;;;;35.25;6.55;;;8.30;99.90;;;;;;4143718;28;20100;-65
2022/02/02 00:36:30;;;;;;;32.40;7.47;;;8.30;99.90;;;;;;4141539;28;20046;-65
2022/02/02 00:38:31;;;;;;;34.20;7.50;;;8.20;99.90;;;;;;4133722;28;20049;-64
2022/02/02 00:40:34;;;;;;;40.05;6.95;;;8.20;99.90;;;;;;4130319;28;20427;-63
2022/02/02 00:42:35;;;;;;;40.13;8.38;;;8.20;99.90;;;;;;4147557;28;20049;-64
2022/02/02 00:44:41;;;;;;;36.45;6.68;;;8.20;99.90;;;;;;4142567;28;20596;-62
2022/02/02 00:46:42;;;;;;;34.30;6.97;;;8.20;99.90;;;;;;4141798;28;20034;-63
2022/02/02 00:48:48;;;;;;;30.60;5.75;;;8.10;99.90;;;;;;4141068;28;20088;-63
2022/02/02 00:50:48;;;;;;;54.58;8.40;;;8.10;99.90;;;;;;4132608;28;20524;-63
2022/02/02 00:52:51;;;;;;;38.70;7.45;;;8.10;99.90;;;;;;4142611;28;20041;-63
2022/02/02 00:54:52;;;;;;;50.35;8.40;;;8.10;99.90;;;;;;4142302;28;20045;-63
2022/02/02 00:56:53;;;;;;;46.13;8.25;;;8.10;99.90;;;;;;4140271;28;20500;-63
2022/02/02 00:58:54;;;;;;;46.13;8.65;;;8.10;99.90;;;;;;4140096;28;20057;-63
2022/02/02 01:00:54;;;;;;;40.83;7.13;;;8.10;99.90;;;;;;4140620;28;20030;-63
2022/02/02 01:02:55;;;;;;;44.00;8.38;;;8.10;99.90;;;;;;4139600;28;20042;-64
2022/02/02 01:04:56;;;;;;;52.40;8.10;;;8.10;99.90;;;;;;4142078;28;20058;-63
2022/02/02 01:07:17;;;;;;;49.47;8.07;;;8.10;99.90;;;;;;4139693;28;20034;-63
2022/02/02 01:22:18;;;;;;;47.92;8.45;;;8.00;99.90;;;;;;4138699;28;20453;-63
2022/02/02 01:28:57;;;;;;;52.15;8.32;;;8.00;99.90;;;;;;4138305;28;20069;-63
2022/02/02 01:30:59;;;;;;;50.55;8.20;;;8.00;99.90;;;;;;4134858;28;20065;-63
2022/02/02 01:33:00;;;;;;;45.72;8.85;;;8.10;99.90;;;;;;4135258;28;20034;-64
2022/02/02 01:35:01;;;;;;;50.97;9.00;;;8.00;99.90;;;;;;4138177;28;20149;-63
2022/02/02 01:37:02;;;;;;;55.03;8.20;;;8.10;99.90;;;;;;4138141;28;20062;-63
2022/02/02 01:39:04;;;;;;;38.65;7.43;;;8.10;99.90;;;;;;4135537;28;20042;-63
2022/02/02 01:41:10;;;;;;;44.00;7.97;;;8.10;99.90;;;;;;4134595;28;20030;-63
2022/02/02 01:43:25;;;;;;;41.72;7.97;;;8.10;99.90;;;;;;4137120;28;20050;-63
2022/02/02 01:45:34;;;;;;;35.08;7.93;;;8.20;99.90;;;;;;4136167;28;20054;-63
2022/02/02 01:47:44;;;;;;;42.65;8.05;;;8.20;99.90;;;;;;4139086;28;20034;-63
2022/02/02 01:50:11;;;;;;;44.53;8.55;;;8.20;99.90;;;;;;4132181;28;20043;-63
2022/02/02 01:53:22;;;;;;;43.90;7.82;;;8.20;99.90;;;;;;4129438;28;20494;-63
2022/02/02 01:54:54;;;;;;;59.63;8.32;;;8.20;99.90;;;;;;4126242;28;20049;-63
2022/02/02 01:56:57;;;;;;;48.88;7.93;;;8.20;99.90;;;;;;4133862;28;20119;-63
2022/02/02 01:59:18;;;;;;;48.10;8.38;;;8.20;99.90;;;;;;4137066;28;20084;-64
2022/02/02 02:01:19;;;;;;;34.88;8.27;;;8.20;99.90;;;;;;4121678;28;20045;-63
2022/02/02 02:03:20;;;;;;;58.72;9.07;;;8.20;99.90;;;;;;4125756;28;20034;-63
2022/02/02 02:05:20;;;;;;;51.03;8.15;;;8.30;99.90;;;;;;4136743;28;20038;-63
2022/02/02 02:07:24;;;;;;;44.88;8.70;;;8.30;99.90;;;;;;4141806;28;20083;-63
2022/02/02 02:09:27;;;;;;;36.20;7.47;;;8.30;99.90;;;;;;4139314;28;20046;-63
2022/02/02 02:11:28;;;;;;;42.45;6.97;;;8.20;99.90;;;;;;4140433;28;20049;-63
2022/02/02 02:15:43;;;;;;;52.22;9.30;;;8.20;99.90;;;;;;4143209;28;20046;-63
2022/02/02 02:17:44;;;;;;;51.30;8.63;;;8.20;99.90;;;;;;4143944;28;20042;-63
2022/02/02 02:19:49;;;;;;;43.40;7.95;;;8.20;99.90;;;;;;4142301;28;20833;-62
2022/02/02 02:21:51;;;;;;;43.03;7.30;;;8.20;99.90;;;;;;4141736;28;20124;-63
2022/02/02 02:23:52;;;;;;;54.65;9.43;;;8.20;99.90;;;;;;4141311;28;20072;-63
2022/02/02 02:25:53;;;;;;;43.38;8.52;;;8.20;99.90;;;;;;4142332;28;20038;-63
2022/02/02 02:28:02;;;;;;;41.55;8.65;;;8.20;99.90;;;;;;4140883;28;20041;-63
2022/02/02 02:30:20;;;;;;;43.90;7.90;;;8.20;99.90;;;;;;4140949;28;20493;-64
2022/02/02 02:57:14;;;;;;;46.20;8.45;;;8.10;99.90;;;;;;4139677;28;20470;-63
2022/02/02 02:59:20;;;;;;;49.50;9.55;;;8.10;99.90;;;;;;4143257;28;20425;-63
2022/02/02 03:51:03;;;;;;;54.35;8.07;;;8.00;99.90;;;;;;4138852;28;20065;-63
2022/02/02 03:53:33;;;;;;;48.33;8.45;;;8.00;99.90;;;;;;4140724;28;20038;-63
2022/02/02 04:04:01;;;;;;;35.58;6.97;;;8.00;99.90;;;;;;4139374;28;20038;-63
2022/02/02 04:06:10;;;;;;;47.17;8.70;;;8.00;99.90;;;;;;4131616;28;20510;-63
2022/02/02 04:10:18;;;;;;;42.75;8.70;;;8.00;99.90;;;;;;4137254;28;20386;-63
2022/02/02 04:51:43;;;;;;;40.47;7.45;;;8.00;99.90;;;;;;4125254;28;20117;-63
2022/02/02 04:57:04;;;;;;;41.40;8.13;;;8.00;99.90;;;;;;4138943;28;20038;-67
2022/02/02 04:58:59;;;;;;;39.63;7.80;;;8.00;99.90;;;;;;4137203;28;20045;-63
2022/02/02 05:09:36;;;;;;;42.95;9.85;;;8.00;99.90;;;;;;4140935;28;20477;-63
2022/02/02 05:12:06;;;;;;;37.75;8.38;;;8.00;99.90;;;;;;4142487;28;20469;-64
2022/02/02 05:26:42;;;;;;;46.00;8.30;;;8.00;99.90;;;;;;4123613;28;20121;-63
2022/02/02 05:44:19;;;;;;;41.60;9.27;;;8.00;99.90;;;;;;4119784;28;20082;-63
2022/02/02 05:50:45;;;;;;;40.88;7.25;;;8.10;99.90;;;;;;4126715;28;20413;-63
2022/02/02 05:52:46;;;;;;;41.05;7.78;;;8.00;99.90;;;;;;4123177;28;20069;-63
2022/02/02 05:54:46;;;;;;;41.55;7.53;;;8.00;99.90;;;;;;4126838;28;20067;-63
2022/02/02 05:56:49;;;;;;;23.88;5.68;;;8.10;99.90;;;;;;4124061;28;20035;-63
2022/02/02 05:58:50;;;;;;;31.30;5.53;;;8.10;99.90;;;;;;4125571;28;20098;-65
2022/02/02 06:00:56;;;;;;;36.92;7.00;;;8.10;99.90;;;;;;4124064;28;20039;-65
2022/02/02 06:03:00;;;;;;;39.25;7.70;;;8.10;99.90;;;;;;4123597;28;20051;-63
2022/02/02 06:05:07;;;;;;;45.80;8.73;;;8.10;99.90;;;;;;4118403;28;20062;-64
2022/02/02 06:07:08;;;;;;;34.63;6.60;;;8.10;99.90;;;;;;4123215;28;20030;-63
2022/02/02 06:09:09;;;;;;;30.98;6.40;;;8.10;99.90;;;;;;4123925;28;20057;-63
2022/02/02 06:11:16;;;;;;;44.58;8.50;;;8.10;99.90;;;;;;4123957;28;20066;-63
2022/02/02 06:13:20;;;;;;;43.42;7.65;;;8.10;99.90;;;;;;4120389;28;20042;-63
2022/02/02 06:15:21;;;;;;;42.55;7.70;;;8.10;99.90;;;;;;4120020;28;20050;-64
2022/02/02 06:17:23;;;;;;;44.80;7.32;;;8.10;99.90;;;;;;4122453;28;20042;-63
2022/02/02 06:19:25;;;;;;;44.13;8.43;;;8.10;99.90;;;;;;4121511;28;20461;-63
2022/02/02 06:21:31;;;;;;;41.47;7.82;;;8.10;99.90;;;;;;4125818;28;20049;-63
2022/02/02 06:23:37;;;;;;;41.75;7.85;;;8.10;99.90;;;;;;4123355;28;20482;-64
2022/02/02 06:25:44;;;;;;;42.10;8.18;;;8.10;99.90;;;;;;4126866;28;20049;-63
2022/02/02 06:27:55;;;;;;;40.58;7.47;;;8.10;99.90;;;;;;4120374;28;20042;-63
2022/02/02 06:30:06;;;;;;;34.55;7.78;;;8.10;99.90;;;;;;4126175;28;20046;-64
2022/02/02 06:32:11;;;;;;;43.15;7.93;;;8.10;99.90;;;;;;4123369;28;20050;-63
2022/02/02 06:34:14;;;;;;;39.30;8.35;;;8.10;99.90;;;;;;4120414;28;20121;-63
2022/02/02 06:36:15;;;;;;;36.72;7.75;;;8.10;99.90;;;;;;4134330;28;20049;-63
2022/02/02 06:38:16;;;;;;;40.25;7.28;;;8.10;99.90;;;;;;4120328;28;20516;-63
2022/02/02 06:40:19;;;;;;;37.63;7.38;;;8.10;99.90;;;;;;4125368;28;20038;-63
2022/02/02 06:42:20;;;;;;;43.17;8.20;;;8.00;99.90;;;;;;4126936;28;20042;-63
2022/02/02 06:44:21;;;;;;;40.40;7.45;;;8.10;99.90;;;;;;4124883;28;20577;-63
2022/02/02 06:46:30;;;;;;;47.67;7.97;;;8.00;99.90;;;;;;4126582;28;20047;-64
2022/02/02 06:48:33;;;;;;;44.70;7.32;;;8.10;99.90;;;;;;4124179;28;20038;-64
2022/02/02 06:50:39;;;;;;;47.83;8.20;;;8.00;99.90;;;;;;4126169;28;20054;-63
2022/02/02 06:53:28;;;;;;;47.85;9.05;;;8.00;99.90;;;;;;4127060;28;20045;-63
2022/02/02 06:55:35;;;;;;;54.35;8.13;;;8.00;99.90;;;;;;4125962;28;20457;-63
2022/02/02 06:58:13;;;;;;;42.30;7.85;;;8.00;99.90;;;;;;4126675;28;20030;-63
2022/02/02 07:00:33;;;;;;;48.17;8.35;;;8.00;99.90;;;;;;4123141;28;20069;-63
2022/02/02 07:07:16;;;;;;;43.05;8.40;;;8.00;99.90;;;;;;4138721;28;20030;-63
2022/02/02 07:11:57;;;;;;;41.03;8.25;;;8.00;99.90;;;;;;4140926;28;20518;-63
2022/02/02 07:14:19;;;;;;;40.17;8.05;;;8.00;99.90;;;;;;4141770;28;20529;-64
2022/02/02 07:19:06;;;;;;;44.53;7.55;;;8.00;99.90;;;;;;4138338;28;20046;-63
2022/02/02 07:25:38;;;;;;;50.33;8.52;;;7.90;99.90;;;;;;4139128;28;20125;-64
2022/02/02 07:30:06;;;;;;;43.75;8.00;;;7.90;99.90;;;;;;4140593;28;20049;-63
2022/02/02 07:32:14;;;;;;;43.88;7.97;;;7.90;99.90;;;;;;4140594;28;20464;-64
2022/02/02 07:34:58;;;;;;;42.70;7.68;;;7.80;99.90;;;;;;4141531;28;20046;-64
2022/02/02 07:37:04;;;;;;;37.78;7.20;;;7.80;99.90;;;;;;4126054;28;20405;-64
2022/02/02 07:39:07;;;;;;;34.42;6.97;;;7.80;99.90;;;;;;4135758;28;20038;-63
2022/02/02 07:41:13;;;;;;;43.50;8.43;;;7.90;99.90;;;;;;4134530;28;20136;-63
2022/02/02 07:43:25;;;;;;;39.58;8.27;;;7.90;99.90;;;;;;4139532;28;20064;-63
2022/02/02 07:45:26;;;;;;;44.67;8.50;;;7.80;99.90;;;;;;4140119;28;20441;-63
2022/02/02 07:47:27;;;;;;;42.22;7.72;;;7.80;99.90;;;;;;4138918;28;20320;-63
2022/02/02 07:49:30;;;;;;;35.25;6.70;;;7.80;99.90;;;;;;4138601;28;20046;-63
2022/02/02 07:51:34;;;;;;;29.38;5.50;;;7.90;99.90;;;;;;4139514;28;20092;-65
2022/02/02 07:53:49;;;;;;;29.73;5.88;;;7.90;99.90;;;;;;4140884;28;20482;-63
2022/02/02 07:55:51;;;;;;;42.33;8.32;;;7.90;99.90;;;;;;4139289;28;20065;-64
2022/02/02 07:57:56;;;;;;;35.03;7.87;;;8.00;99.90;;;;;;4139680;28;20077;-64
2022/02/02 08:00:01;;;;;;;43.13;7.55;;;8.00;99.90;;;;;;4142278;28;20597;-63
2022/02/02 08:02:03;;;;;;;37.45;7.28;;;8.00;99.90;;;;;;4137538;28;20062;-63
2022/02/02 08:04:04;;;;;;;34.28;6.65;;;8.00;99.90;;;;;;4141299;28;20045;-64
2022/02/02 08:06:07;;;;;;;35.42;6.47;;;8.00;99.90;;;;;;4139688;28;20042;-63
2022/02/02 08:10:19;;;;;;;35.90;6.15;;;8.10;99.90;;;;;;4140525;28;20046;-63
2022/02/02 08:12:21;;;;;;;42.25;6.93;;;8.20;99.90;;;;;;4141552;28;20038;-63
2022/02/02 08:14:22;;;;;;;35.22;6.88;;;8.30;99.90;;;;;;4139677;28;20050;-63
2022/02/02 08:16:24;;;;;;;44.87;8.17;;;8.30;99.90;;;;;;4139893;28;20038;-63
2022/02/02 08:18:24;;;;;;;32.30;6.75;;;8.40;99.90;;;;;;4140846;28;20433;-64
2022/02/02 08:20:26;;;;;;;37.53;7.55;;;8.60;99.90;;;;;;4138507;28;20066;-63
2022/02/02 08:22:29;;;;;;;28.65;6.60;;;8.70;99.90;;;;;;4141340;28;20088;-64
2022/02/02 08:24:30;;;;;;;34.22;7.00;;;8.90;99.90;;;;;;4140728;28;20546;-64
2022/02/02 08:26:31;;;;;;;37.40;7.63;;;9.00;99.90;;;;;;4140282;28;20106;-64
2022/02/02 08:28:32;;;;;;;31.17;6.82;;;9.20;99.90;;;;;;4140757;28;20350;-64
2022/02/02 08:30:33;;;;;;;36.28;7.32;;;9.30;99.90;;;;;;4137943;28;20069;-64
2022/02/02 08:32:41;;;;;;;29.35;6.45;;;9.40;99.90;;;;;;4141009;28;20049;-63
2022/02/02 08:34:48;;;;;;;38.22;7.20;;;9.50;99.90;;;;;;4155854;28;20536;-63
2022/02/02 08:36:53;;;;;;;29.63;6.30;;;9.50;99.90;;;;;;4139179;28;20041;-64
2022/02/02 08:39:13;;;;;;;30.35;6.40;;;9.50;99.90;;;;;;4140254;28;20116;-64
2022/02/02 08:41:37;;;;;;;41.30;6.85;;;9.50;99.90;;;;;;4139910;28;20121;-64
2022/02/02 08:45:42;;;;;;;30.23;6.95;;;9.60;99.90;;;;;;4140148;28;21675;-64
2022/02/02 08:47:48;;;;;;;41.22;8.15;;;9.60;99.90;;;;;;4138582;28;20057;-64
2022/02/02 08:49:55;;;;;;;42.35;7.80;;;9.50;99.90;;;;;;4140633;28;20486;-63
2022/02/02 08:51:55;;;;;;;24.15;5.72;;;9.40;99.90;;;;;;4137800;28;20056;-64
2022/02/02 09:00:24;;;;;;;37.60;6.72;;;9.40;99.90;;;;;;4139915;28;20052;-64
2022/02/02 09:02:30;;;;;;;36.53;7.25;;;9.20;99.90;;;;;;4140729;28;20050;-64
2022/02/02 09:06:50;;;;;;;33.38;7.20;;;9.20;99.90;;;;;;4139335;28;20038;-64
2022/02/02 09:09:00;;;;;;;32.15;6.88;;;9.20;99.90;;;;;;4137083;28;20198;-64
2022/02/02 09:20:37;;;;;;;46.35;8.07;;;8.90;99.90;;;;;;4139628;28;20363;-64
2022/02/02 09:31:28;;;;;;;29.60;6.53;;;8.80;99.90;;;;;;4138309;28;20046;-64
2022/02/02 09:35:31;;;;;;;42.88;7.38;;;8.80;99.90;;;;;;4139304;28;20034;-64
2022/02/02 09:37:32;;;;;;;46.40;8.65;;;8.80;99.90;;;;;;4139340;28;20472;-64
2022/02/02 09:39:40;;;;;;;44.45;7.40;;;8.70;99.90;;;;;;4140968;28;20038;-64
2022/02/02 09:42:00;;;;;;;36.75;7.68;;;8.80;99.90;;;;;;4138107;28;20125;-64
2022/02/02 09:44:03;;;;;;;35.70;7.72;;;8.80;99.90;;;;;;4139233;28;20041;-64
2022/02/02 09:46:10;;;;;;;52.58;8.45;;;8.70;99.90;;;;;;4139344;28;20053;-64
2022/02/02 09:48:22;;;;;;;28.02;7.13;;;8.80;99.90;;;;;;4138309;28;20505;-64
2022/02/02 09:50:33;;;;;;;40.47;7.85;;;8.80;99.90;;;;;;4138144;28;20041;-64
2022/02/02 09:52:39;;;;;;;39.25;8.25;;;8.80;99.90;;;;;;4137467;28;20050;-64
2022/02/02 09:57:31;;;;;;;42.83;8.13;;;8.80;99.90;;;;;;4137516;28;20034;-64
2022/02/02 09:59:33;;;;;;;45.55;8.25;;;8.80;99.90;;;;;;4139635;28;20034;-64
2022/02/02 10:04:05;;;;;;;44.45;8.63;;;8.90;99.90;;;;;;4138539;28;20389;-64
2022/02/02 10:06:16;;;;;;;44.55;6.70;;;9.00;99.90;;;;;;4137743;28;20045;-64
2022/02/02 10:10:53;;;;;;;38.67;7.15;;;9.00;99.90;;;;;;4129231;28;20041;-64
2022/02/02 10:15:02;;;;;;;48.42;9.45;;;9.10;99.90;;;;;;4139831;28;20049;-64
2022/02/02 10:17:09;;;;;;;36.88;7.63;;;9.10;99.90;;;;;;4139000;28;20051;-64
2022/02/02 10:19:18;;;;;;;40.92;7.53;;;9.10;99.90;;;;;;4139105;28;20053;-64
2022/02/02 10:21:32;;;;;;;48.28;8.50;;;9.20;99.90;;;;;;4140382;28;20034;-66
2022/02/02 10:23:35;;;;;;;42.08;7.65;;;9.10;99.90;;;;;;4142996;28;20041;-64
2022/02/02 10:25:43;;;;;;;46.20;7.65;;;9.10;99.90;;;;;;4141868;28;20050;-64
2022/02/02 10:27:46;;;;;;;49.40;8.35;;;9.10;99.90;;;;;;4143435;28;20553;-64
2022/02/02 10:29:46;;;;;;;50.47;8.75;;;9.20;99.90;;;;;;4142551;28;20034;-64
2022/02/02 10:31:50;;;;;;;38.60;7.70;;;9.10;99.90;;;;;;4142928;28;20041;-64
2022/02/02 10:34:09;;;;;;;50.78;8.95;;;9.20;99.90;;;;;;4141489;28;20501;-65
2022/02/02 10:38:24;;;;;;;38.08;8.07;;;9.10;99.90;;;;;;4141563;28;20489;-64
2022/02/02 10:40:57;;;;;;;31.65;7.38;;;9.10;99.90;;;;;;4141483;28;20473;-64
2022/02/02 10:42:57;;;;;;;53.17;8.63;;;9.10;99.90;;;;;;4142347;28;20116;-64
2022/02/02 10:45:14;;;;;;;47.08;8.82;;;9.00;99.90;;;;;;4141180;28;20057;-64
2022/02/02 10:47:24;;;;;;;44.75;8.43;;;9.10;99.90;;;;;;4142189;28;20379;-64
2022/02/02 10:49:39;;;;;;;37.83;7.45;;;9.10;99.90;;;;;;4140209;28;20413;-64
2022/02/02 10:51:48;;;;;;;43.38;8.10;;;9.10;99.90;;;;;;4141039;28;20610;-64
2022/02/02 10:54:15;;;;;;;46.05;8.32;;;9.20;99.90;;;;;;4141274;28;20045;-64
2022/02/02 10:56:33;;;;;;;38.45;7.88;;;9.20;99.90;;;;;;4140785;28;20041;-64
2022/02/02 11:01:06;;;;;;;39.22;8.23;;;9.10;99.90;;;;;;4141558;28;20042;-64
2022/02/02 11:07:48;;;;;;;45.05;8.60;;;9.20;99.90;;;;;;4142777;28;20056;-64
2022/02/02 11:09:49;;;;;;;;;;;9.20;99.90;;;;;;4142371;28;20037;-64
2022/02/02 11:11:52;;;;;;;35.67;7.43;;;9.20;99.90;;;;;;4141488;28;19919;-65
2022/02/02 11:13:59;;;;;;;48.08;8.38;;;9.20;99.90;;;;;;4141990;28;20381;-64
2022/02/02 11:16:01;;;;;;;38.38;7.65;;;9.20;99.90;;;;;;4138562;28;20046;-64
2022/02/02 11:18:06;;;;;;;42.88;8.88;;;9.30;99.90;;;;;;4141639;28;20046;-66
2022/02/02 11:20:07;;;;;;;52.83;9.48;;;9.30;99.90;;;;;;4141560;28;20185;-68
2022/02/02 11:22:32;;;;;;;39.17;7.82;;;9.30;99.90;;;;;;4140234;28;20106;-64
2022/02/02 11:24:37;;;;;;;40.60;7.65;;;9.30;99.90;;;;;;4140027;28;20037;-66
2022/02/02 11:26:45;;;;;;;51.10;8.85;;;9.40;99.90;;;;;;4140901;28;20046;-65
2022/02/02 11:28:49;;;;;;;41.78;7.90;;;9.40;99.90;;;;;;4141965;28;20092;-63
2022/02/02 11:30:50;;;;;;;41.65;8.02;;;9.30;99.90;;;;;;4140119;28;20037;-64
2022/02/02 11:32:53;;;;;;;35.13;7.43;;;9.30;99.90;;;;;;4139088;28;20109;-64
2022/02/02 11:35:29;;;;;;;40.35;7.63;;;9.30;99.90;;;;;;4139587;28;20041;-64
2022/02/02 11:37:56;;;;;;;43.45;8.52;;;9.30;99.90;;;;;;4138963;28;20072;-64
2022/02/02 11:40:08;;;;;;;39.97;8.38;;;9.40;99.90;;;;;;4141034;28;20041;-64
2022/02/02 11:42:53;;;;;;;36.88;7.53;;;9.40;99.90;;;;;;4141504;28;20058;-64
2022/02/02 11:45:06;;;;;;;41.70;8.05;;;9.50;99.90;;;;;;4139948;28;20496;-64
2022/02/02 11:49:22;;;;;;;;;;;9.50;99.90;;;;;;4140905;28;20041;-64
2022/02/02 11:51:44;;;;;;;27.20;6.28;;;9.50;99.90;;;;;;4140437;28;19916;-64
2022/02/02 11:53:53;;;;;;;31.25;6.28;;;9.50;99.90;;;;;;4139576;28;20077;-64
2022/02/02 11:56:06;;;;;;;31.25;7.43;;;9.60;99.90;;;;;;4140343;28;20045;-64
2022/02/02 11:58:15;;;;;;;26.00;5.95;;;9.70;99.90;;;;;;4139721;28;20053;-64
2022/02/02 12:02:31;;;;;;;28.60;5.30;;;9.70;99.90;;;;;;4140573;28;20904;-64
2022/02/02 12:05:02;;;;;;;26.85;5.75;;;9.70;99.90;;;;;;4139053;28;20053;-65
2022/02/02 12:07:08;;;;;;;29.85;7.47;;;9.70;99.90;;;;;;4137579;28;20034;-65
2022/02/02 12:09:31;;;;;;;40.70;7.43;;;9.70;99.90;;;;;;4139897;28;20405;-64
2022/02/02 12:27:45;;;;;;;37.20;6.75;;;9.50;99.90;;;;;;4141049;28;20033;-65
2022/02/02 12:49:04;;;;;;;24.52;4.68;;;10.00;99.90;;;;;;4140777;28;20362;-64
2022/02/02 12:56:05;;;;;;;27.65;5.63;;;10.10;99.90;;;;;;4138637;28;20045;-64
2022/02/02 12:58:13;;;;;;;34.77;5.60;;;10.10;99.90;;;;;;4138980;28;20145;-64
2022/02/02 13:00:23;;;;;;;23.67;5.00;;;10.20;99.90;;;;;;4139165;28;20269;-64
2022/02/02 13:02:24;;;;;;;24.20;5.47;;;10.20;99.90;;;;;;4140611;28;20050;-64
2022/02/02 13:04:28;;;;;;;27.80;5.63;;;10.30;99.90;;;;;;4140393;28;20380;-64
2022/02/02 13:06:39;;;;;;;23.27;5.30;;;10.30;99.90;;;;;;4141154;28;20041;-64
2022/02/02 13:08:40;;;;;;;30.67;5.35;;;10.30;99.90;;;;;;4138807;28;20069;-64
2022/02/02 13:10:41;;;;;;;35.90;5.68;;;10.40;99.90;;;;;;4139416;28;20038;-64
2022/02/02 13:12:53;;;;;;;22.30;4.60;;;10.50;99.90;;;;;;4143540;28;20069;-64
2022/02/02 13:17:21;;;;;;;24.80;5.55;;;10.60;99.90;;;;;;4121823;28;20030;-64
2022/02/02 13:19:28;;;;;;;25.38;5.53;;;10.60;99.90;;;;;;4139120;28;20195;-65
2022/02/02 13:21:33;;;;;;;21.23;4.35;;;10.70;99.90;;;;;;4139457;28;20033;-64
2022/02/02 13:25:53;;;;;;;30.17;5.80;;;10.80;99.90;;;;;;4139539;28;20073;-64
2022/02/02 13:27:53;;;;;;;24.67;4.85;;;10.90;99.90;;;;;;4139428;28;20076;-64
2022/02/02 13:29:54;;;;;;;22.42;4.32;;;10.90;99.90;;;;;;4137168;28;20038;-64
2022/02/02 13:32:07;;;;;;;21.73;4.80;;;10.90;99.90;;;;;;4138368;28;20165;-64
2022/02/02 13:34:24;;;;;;;19.83;5.10;;;10.90;99.90;;;;;;4139119;28;20649;-64
2022/02/02 13:36:49;;;;;;;23.58;4.15;;;10.90;99.90;;;;;;4139368;28;20042;-64
2022/02/02 13:43:49;;;;;;;19.48;4.57;;;10.90;99.90;;;;;;4138744;28;20149;-64
2022/02/02 13:53:07;;;;;;;18.00;4.57;;;10.90;99.90;;;;;;4116305;28;20405;-64
2022/02/02 13:55:46;;;;;;;23.05;5.13;;;10.90;99.90;;;;;;4138795;28;20049;-66
2022/02/02 13:58:16;;;;;;;22.17;4.38;;;10.70;99.90;;;;;;4142293;28;20050;-64
2022/02/02 14:00:28;;;;;;;20.75;4.60;;;10.70;99.90;;;;;;4141380;28;20064;-64
2022/02/02 14:07:30;;;;;;;23.17;4.85;;;10.70;99.90;;;;;;4142186;28;20042;-64
2022/02/02 14:09:55;;;;;;;27.75;4.55;;;10.70;99.90;;;;;;4141346;28;20035;-64
2022/02/02 14:25:49;;;;;;;22.52;4.30;;;10.70;99.90;;;;;;4140055;28;20034;-65
2022/02/02 14:32:47;;;;;;;21.67;4.38;;;10.60;99.90;;;;;;4141370;28;20042;-64
2022/02/02 14:34:47;;;;;;;20.30;4.82;;;10.60;99.90;;;;;;4143496;28;20044;-65
2022/02/02 14:36:50;;;;;;;17.67;4.18;;;10.50;99.90;;;;;;4142540;28;20092;-64
2022/02/02 14:39:01;;;;;;;18.17;4.38;;;10.50;99.90;;;;;;4142577;28;20045;-65
2022/02/02 14:41:12;;;;;;;22.88;3.53;;;10.60;99.90;;;;;;4139602;28;20060;-64
2022/02/02 14:43:15;;;;;;;25.65;5.22;;;10.60;99.90;;;;;;4142675;28;20183;-64
2022/02/02 14:45:20;;;;;;;18.75;4.50;;;10.60;99.90;;;;;;4140049;28;20482;-65
2022/02/02 14:47:29;;;;;;;23.40;4.72;;;10.60;99.90;;;;;;4141944;28;20050;-65
2022/02/02 14:50:09;;;;;;;19.38;4.35;;;10.60;99.90;;;;;;4142331;28;20046;-64
2022/02/02 14:52:11;;;;;;;25.15;4.68;;;10.60;99.90;;;;;;4137283;28;20040;-64
2022/02/02 14:54:29;;;;;;;19.98;3.72;;;10.70;99.90;;;;;;4142874;28;20492;-65
2022/02/02 15:30:11;;;;;;;13.13;3.60;;;10.50;99.90;;;;;;4141156;28;20030;-65
2022/02/02 15:32:12;;;;;;;20.38;4.43;;;10.40;99.90;;;;;;4141005;28;20046;-65
2022/02/02 15:34:19;;;;;;;14.40;3.55;;;10.40;99.90;;;;;;4141829;28;20443;-64
2022/02/02 15:38:25;;;;;;;14.52;3.90;;;10.30;99.90;;;;;;4140740;28;20046;-64
2022/02/02 15:40:32;;;;;;;17.63;3.38;;;10.30;99.90;;;;;;4139457;28;20477;-65
2022/02/02 15:58:31;;;;;;;15.32;3.42;;;10.00;99.90;;;;;;4141237;28;20045;-65
2022/02/02 16:04:55;;;;;;;10.75;3.45;;;10.00;99.90;;;;;;4139467;28;20034;-65
2022/02/02 16:06:57;;;;;;;14.60;3.28;;;10.00;99.90;;;;;;4139618;28;20056;-65
2022/02/02 16:09:11;;;;;;;18.40;3.97;;;10.00;99.90;;;;;;4139516;28;20073;-65
2022/02/02 16:13:28;;;;;;;17.25;3.80;;;10.00;99.90;;;;;;4140581;28;20045;-64
2022/02/02 16:15:31;;;;;;;13.02;3.85;;;10.00;99.90;;;;;;4140634;28;20061;-64
2022/02/02 16:17:41;;;;;;;14.70;3.40;;;9.90;99.90;;;;;;4140739;28;20132;-64
2022/02/02 16:32:26;;;;;;;13.13;2.83;;;9.90;99.90;;;;;;4090833;28;20051;-68
2022/02/02 16:36:58;;;;;;;9.15;3.10;;;10.00;99.90;;;;;;4147878;28;20876;-65
2022/02/02 16:39:06;;;;;;;12.77;4.28;;;9.90;99.90;;;;;;4141483;28;20030;-65
2022/02/02 16:42:56;;;;;;;15.52;5.65;;;9.90;99.90;;;;;;4138943;28;20038;-65
2022/02/02 16:43:27;;;;;;;15.52;5.25;;;9.90;99.90;;;;;;4139677;28;20393;-64
2022/02/02 16:45:29;;;;;;;15.30;5.65;;;9.90;99.90;;;;;;4136962;28;20060;-65
2022/02/02 16:47:29;;;;;;;16.07;5.43;;;9.80;99.90;;;;;;4140282;28;20061;-65
2022/02/02 16:49:30;;;;;;;10.40;4.35;;;9.80;99.90;;;;;;4140475;28;20038;-65
2022/02/02 16:51:31;;;;;;;18.05;4.53;;;9.80;99.90;;;;;;4139386;28;20125;-66
2022/02/02 16:53:40;;;;;;;15.38;4.75;;;9.80;99.90;;;;;;4140559;28;20465;-65
2022/02/02 16:57:00;;;;;;;8.95;3.20;;;9.80;99.90;;;;;;4136958;28;20042;-65
2022/02/02 17:24:18;;;;;;;12.13;3.90;;;9.70;99.90;;;;;;4122909;28;20046;-63
2022/02/02 17:29:31;;;;;;;11.63;3.60;;;9.50;99.90;;;;;;4138248;28;20584;-65
2022/02/02 17:35:28;;;;;;;9.70;2.95;;;9.40;99.90;;;;;;4137593;28;20038;-65
2022/02/02 17:40:08;;;;;;;11.95;3.53;;;9.40;99.90;;;;;;4140030;28;20095;-65
2022/02/02 17:44:54;;;;;;;16.92;3.63;;;9.40;99.90;;;;;;4099326;28;1109843;-65
2022/02/02 18:18:55;;;;;;;12.43;4.15;;;9.20;99.90;;;;;;4140114;28;20547;-65
2022/02/02 18:20:57;;;;;;;15.50;4.45;;;9.20;99.90;;;;;;4135061;28;20047;-65
2022/02/02 18:23:18;;;;;;;13.18;4.63;;;9.20;99.90;;;;;;4136614;28;20058;-65
2022/02/02 18:25:31;;;;;;;11.73;4.28;;;9.20;99.90;;;;;;4135799;28;20042;-65
2022/02/02 18:27:47;;;;;;;16.45;4.68;;;9.20;99.90;;;;;;4136529;28;20041;-65
2022/02/02 18:32:08;;;;;;;15.15;5.13;;;9.10;99.90;;;;;;4136859;28;20099;-65
2022/02/02 18:34:35;;;;;;;15.80;4.72;;;9.10;99.90;;;;;;4136938;28;20497;-65
2022/02/02 18:36:49;;;;;;;15.02;4.78;;;9.10;99.90;;;;;;4138970;28;20393;-65
2022/02/02 18:44:34;;;;;;;17.50;6.28;;;9.20;99.90;;;;;;4142442;28;20050;-65
2022/02/02 18:48:18;;;;;;;19.25;6.45;;;9.10;99.90;;;;;;4142768;28;20053;-65
2022/02/02 18:52:47;;;;;;;25.30;8.40;;;9.20;99.90;;;;;;4142598;28;20148;-65
2022/02/02 19:02:13;;;;;;;20.92;8.18;;;9.10;99.90;;;;;;4126492;28;20030;-65
2022/02/02 19:37:12;;;;;;;13.80;5.57;;;9.20;99.90;;;;;;4125763;28;20450;-65
2022/02/02 19:39:56;;;;;;;13.85;4.82;;;9.30;99.90;;;;;;4128490;28;20043;-65
2022/02/02 19:57:23;;;;;;;13.20;5.30;;;9.30;99.90;;;;;;4125060;28;20396;-65
2022/02/02 20:01:52;;;;;;;12.60;5.90;;;9.30;99.90;;;;;;4125782;28;20490;-65
2022/02/02 20:08:40;;;;;;;13.98;6.15;;;9.30;99.90;;;;;;4114058;28;20022;-65
2022/02/02 20:10:48;;;;;;;16.85;7.70;;;9.30;99.90;;;;;;4125152;28;20089;-65
2022/02/02 20:12:51;;;;;;;13.38;6.97;;;9.30;99.90;;;;;;4125310;28;20050;-65
2022/02/02 20:14:52;;;;;;;18.63;8.07;;;9.30;99.90;;;;;;4127369;28;20040;-67
2022/02/02 20:16:52;;;;;;;17.73;8.32;;;9.30;99.90;;;;;;4124234;28;20537;-65
2022/02/02 20:18:56;;;;;;;20.15;8.82;;;9.30;99.90;;;;;;4124584;28;20510;-66
2022/02/02 20:21:00;;;;;;;17.20;9.82;;;9.30;99.90;;;;;;4125680;28;20502;-65
2022/02/02 20:23:03;;;;;;;14.43;9.10;;;9.30;99.90;;;;;;4126582;28;20047;-65
2022/02/02 20:25:04;;;;;;;18.85;10.10;;;9.30;99.90;;;;;;4125517;28;20043;-66
2022/02/02 20:27:07;;;;;;;17.27;9.32;;;9.30;99.90;;;;;;4124326;28;20031;-65
2022/02/02 20:29:09;;;;;;;17.20;9.50;;;9.30;99.90;;;;;;4126276;28;20125;-68
2022/02/02 20:31:09;;;;;;;20.58;10.77;;;9.30;99.90;;;;;;4125877;28;20092;-66